sensor_id;sensor_type;location;lat;lon;timestamp;P1;durP1;ratioP1;P2;durP2;ratioP2
23222;SDS011;11780;13.904;100.620;2023-08-06T00:01:53;13.55;;;9.38;;
23222;SDS011;11780;13.904;100.620;2023-08-06T00:04:24;14.13;;;8.57;;
23222;SDS011;11780;13.904;100.620;2023-08-06T00:06:54;13.73;;;9.50;;
23222;SDS011;11780;13.904;100.620;2023-08-06T00:09:26;12.52;;;7.95;;
23222;SDS011;11780;13.904;100.620;2023-08-06T00:11:56;14.52;;;8.50;;
23222;SDS011;11780;13.904;100.620;2023-08-06T00:14:26;14.73;;;8.45;;
23222;SDS011;11780;13.904;100.620;2023-08-06T00:16:57;12.65;;;8.35;;
23222;SDS011;11780;13.904;100.620;2023-08-06T00:19:27;16.00;;;7.63;;
23222;SDS011;11780;13.904;100.620;2023-08-06T00:21:58;12.65;;;7.45;;
23222;SDS011;11780;13.904;100.620;2023-08-06T00:24:28;12.02;;;7.60;;
23222;SDS011;11780;13.904;100.620;2023-08-06T00:26:58;18.30;;;8.40;;
23222;SDS011;11780;13.904;100.620;2023-08-06T00:29:29;23.25;;;12.55;;
23222;SDS011;11780;13.904;100.620;2023-08-06T00:31:59;23.77;;;12.73;;
23222;SDS011;11780;13.904;100.620;2023-08-06T00:34:30;21.83;;;12.50;;
23222;SDS011;11780;13.904;100.620;2023-08-06T00:37:01;50.13;;;19.30;;
23222;SDS011;11780;13.904;100.620;2023-08-06T00:39:32;26.97;;;13.67;;
23222;SDS011;11780;13.904;100.620;2023-08-06T00:42:02;30.37;;;13.07;;
23222;SDS011;11780;13.904;100.620;2023-08-06T00:44:33;20.65;;;9.48;;
23222;SDS011;11780;13.904;100.620;2023-08-06T00:47:04;15.90;;;7.70;;
23222;SDS011;11780;13.904;100.620;2023-08-06T00:49:36;13.85;;;6.65;;
23222;SDS011;11780;13.904;100.620;2023-08-06T00:52:08;14.07;;;7.00;;
23222;SDS011;11780;13.904;100.620;2023-08-06T00:54:38;12.15;;;5.80;;
23222;SDS011;11780;13.904;100.620;2023-08-06T00:57:10;12.07;;;6.05;;
23222;SDS011;11780;13.904;100.620;2023-08-06T01:02:11;6.75;;;5.03;;
23222;SDS011;11780;13.904;100.620;2023-08-06T01:04:42;9.68;;;5.10;;
23222;SDS011;11780;13.904;100.620;2023-08-06T01:15:54;19.52;;;10.23;;
23222;SDS011;11780;13.904;100.620;2023-08-06T01:18:28;11.50;;;5.50;;
23222;SDS011;11780;13.904;100.620;2023-08-06T01:21:01;10.73;;;5.57;;
23222;SDS011;11780;13.904;100.620;2023-08-06T01:23:31;10.10;;;5.20;;
23222;SDS011;11780;13.904;100.620;2023-08-06T01:26:25;9.75;;;4.95;;
23222;SDS011;11780;13.904;100.620;2023-08-06T01:31:37;9.52;;;4.88;;
23222;SDS011;11780;13.904;100.620;2023-08-06T01:34:16;9.98;;;4.80;;
23222;SDS011;11780;13.904;100.620;2023-08-06T01:36:50;6.90;;;4.40;;
23222;SDS011;11780;13.904;100.620;2023-08-06T01:39:21;9.95;;;4.68;;
23222;SDS011;11780;13.904;100.620;2023-08-06T01:41:51;9.83;;;4.20;;
23222;SDS011;11780;13.904;100.620;2023-08-06T01:44:22;9.20;;;4.85;;
23222;SDS011;11780;13.904;100.620;2023-08-06T01:46:52;11.37;;;4.60;;
23222;SDS011;11780;13.904;100.620;2023-08-06T01:49:23;10.23;;;4.55;;
23222;SDS011;11780;13.904;100.620;2023-08-06T01:51:53;8.20;;;5.03;;
23222;SDS011;11780;13.904;100.620;2023-08-06T01:54:24;7.47;;;4.40;;
23222;SDS011;11780;13.904;100.620;2023-08-06T01:56:54;28.52;;;16.80;;
23222;SDS011;11780;13.904;100.620;2023-08-06T01:59:24;7.13;;;4.75;;
23222;SDS011;11780;13.904;100.620;2023-08-06T02:01:55;8.98;;;5.55;;
23222;SDS011;11780;13.904;100.620;2023-08-06T02:04:25;9.43;;;5.30;;
23222;SDS011;11780;13.904;100.620;2023-08-06T02:06:56;13.55;;;5.63;;
23222;SDS011;11780;13.904;100.620;2023-08-06T02:09:27;8.88;;;4.88;;
23222;SDS011;11780;13.904;100.620;2023-08-06T02:11:58;11.85;;;5.45;;
23222;SDS011;11780;13.904;100.620;2023-08-06T02:14:29;11.32;;;5.05;;
23222;SDS011;11780;13.904;100.620;2023-08-06T02:17:00;12.27;;;6.17;;
23222;SDS011;11780;13.904;100.620;2023-08-06T02:19:30;9.30;;;5.55;;
23222;SDS011;11780;13.904;100.620;2023-08-06T02:22:01;9.20;;;5.22;;
23222;SDS011;11780;13.904;100.620;2023-08-06T02:24:32;7.10;;;4.57;;
23222;SDS011;11780;13.904;100.620;2023-08-06T02:27:02;9.27;;;4.63;;
23222;SDS011;11780;13.904;100.620;2023-08-06T02:29:33;7.80;;;5.03;;
23222;SDS011;11780;13.904;100.620;2023-08-06T02:32:04;22.57;;;8.47;;
23222;SDS011;11780;13.904;100.620;2023-08-06T02:34:34;10.70;;;5.47;;
23222;SDS011;11780;13.904;100.620;2023-08-06T02:37:05;9.77;;;5.20;;
23222;SDS011;11780;13.904;100.620;2023-08-06T02:39:35;9.43;;;4.67;;
23222;SDS011;11780;13.904;100.620;2023-08-06T02:42:08;8.68;;;4.63;;
23222;SDS011;11780;13.904;100.620;2023-08-06T02:44:39;10.67;;;4.43;;
23222;SDS011;11780;13.904;100.620;2023-08-06T02:47:09;10.60;;;5.13;;
23222;SDS011;11780;13.904;100.620;2023-08-06T02:49:39;11.07;;;4.40;;
23222;SDS011;11780;13.904;100.620;2023-08-06T02:52:10;10.65;;;4.95;;
23222;SDS011;11780;13.904;100.620;2023-08-06T02:57:13;13.10;;;6.35;;
23222;SDS011;11780;13.904;100.620;2023-08-06T02:59:46;12.95;;;5.57;;
23222;SDS011;11780;13.904;100.620;2023-08-06T03:02:20;8.45;;;5.13;;
23222;SDS011;11780;13.904;100.620;2023-08-06T03:04:58;12.00;;;5.30;;
23222;SDS011;11780;13.904;100.620;2023-08-06T03:07:32;16.50;;;6.03;;
23222;SDS011;11780;13.904;100.620;2023-08-06T03:10:11;10.45;;;5.75;;
23222;SDS011;11780;13.904;100.620;2023-08-06T03:12:43;11.15;;;6.43;;
23222;SDS011;11780;13.904;100.620;2023-08-06T03:15:22;15.93;;;8.52;;
23222;SDS011;11780;13.904;100.620;2023-08-06T03:17:55;13.77;;;7.45;;
23222;SDS011;11780;13.904;100.620;2023-08-06T03:20:27;13.95;;;5.88;;
23222;SDS011;11780;13.904;100.620;2023-08-06T03:22:57;11.00;;;5.87;;
23222;SDS011;11780;13.904;100.620;2023-08-06T03:25:30;12.05;;;5.82;;
23222;SDS011;11780;13.904;100.620;2023-08-06T03:28:00;9.00;;;5.80;;
23222;SDS011;11780;13.904;100.620;2023-08-06T03:30:33;10.07;;;5.22;;
23222;SDS011;11780;13.904;100.620;2023-08-06T03:33:05;9.05;;;5.05;;
23222;SDS011;11780;13.904;100.620;2023-08-06T03:35:36;9.38;;;5.60;;
23222;SDS011;11780;13.904;100.620;2023-08-06T03:38:06;12.30;;;6.13;;
23222;SDS011;11780;13.904;100.620;2023-08-06T03:40:37;10.35;;;6.00;;
23222;SDS011;11780;13.904;100.620;2023-08-06T03:43:07;9.13;;;5.18;;
23222;SDS011;11780;13.904;100.620;2023-08-06T03:45:37;13.07;;;6.40;;
23222;SDS011;11780;13.904;100.620;2023-08-06T03:48:09;14.35;;;6.72;;
23222;SDS011;11780;13.904;100.620;2023-08-06T03:50:40;12.15;;;4.97;;
23222;SDS011;11780;13.904;100.620;2023-08-06T03:53:13;9.40;;;4.68;;
23222;SDS011;11780;13.904;100.620;2023-08-06T03:55:44;9.80;;;5.63;;
23222;SDS011;11780;13.904;100.620;2023-08-06T03:58:14;14.73;;;5.28;;
23222;SDS011;11780;13.904;100.620;2023-08-06T04:00:45;14.30;;;4.63;;
23222;SDS011;11780;13.904;100.620;2023-08-06T04:03:15;11.23;;;5.03;;
23222;SDS011;11780;13.904;100.620;2023-08-06T04:05:46;11.23;;;5.97;;
23222;SDS011;11780;13.904;100.620;2023-08-06T04:08:16;12.17;;;5.87;;
23222;SDS011;11780;13.904;100.620;2023-08-06T04:10:51;16.93;;;7.07;;
23222;SDS011;11780;13.904;100.620;2023-08-06T04:13:22;15.27;;;5.75;;
23222;SDS011;11780;13.904;100.620;2023-08-06T04:15:52;10.10;;;4.87;;
23222;SDS011;11780;13.904;100.620;2023-08-06T14:34:38;6.90;;;4.93;;
23222;SDS011;11780;13.904;100.620;2023-08-06T14:39:40;11.50;;;4.82;;
23222;SDS011;11780;13.904;100.620;2023-08-06T14:42:10;6.95;;;4.75;;
23222;SDS011;11780;13.904;100.620;2023-08-06T14:44:41;8.73;;;4.88;;
23222;SDS011;11780;13.904;100.620;2023-08-06T14:47:11;8.13;;;5.87;;
23222;SDS011;11780;13.904;100.620;2023-08-06T14:49:41;8.50;;;5.00;;
23222;SDS011;11780;13.904;100.620;2023-08-06T14:52:12;10.87;;;5.50;;
23222;SDS011;11780;13.904;100.620;2023-08-06T14:54:42;11.60;;;5.63;;
23222;SDS011;11780;13.904;100.620;2023-08-06T14:57:13;7.70;;;5.10;;
23222;SDS011;11780;13.904;100.620;2023-08-06T14:59:43;7.78;;;4.57;;
23222;SDS011;11780;13.904;100.620;2023-08-06T15:02:14;12.50;;;5.50;;
23222;SDS011;11780;13.904;100.620;2023-08-06T15:04:44;8.57;;;5.15;;
23222;SDS011;11780;13.904;100.620;2023-08-06T15:07:15;11.70;;;5.23;;
23222;SDS011;11780;13.904;100.620;2023-08-06T15:09:45;7.28;;;4.80;;
23222;SDS011;11780;13.904;100.620;2023-08-06T15:12:36;13.00;;;5.85;;
23222;SDS011;11780;13.904;100.620;2023-08-06T15:15:08;8.82;;;5.40;;
23222;SDS011;11780;13.904;100.620;2023-08-06T15:17:39;8.27;;;4.43;;
23222;SDS011;11780;13.904;100.620;2023-08-06T15:20:09;11.07;;;4.73;;
23222;SDS011;11780;13.904;100.620;2023-08-06T15:22:40;9.98;;;5.03;;
23222;SDS011;11780;13.904;100.620;2023-08-06T15:25:10;8.83;;;5.23;;
23222;SDS011;11780;13.904;100.620;2023-08-06T15:27:41;8.60;;;5.07;;
23222;SDS011;11780;13.904;100.620;2023-08-06T15:30:11;8.37;;;4.97;;
23222;SDS011;11780;13.904;100.620;2023-08-06T15:32:42;13.00;;;5.57;;
23222;SDS011;11780;13.904;100.620;2023-08-06T15:35:14;9.75;;;5.90;;
23222;SDS011;11780;13.904;100.620;2023-08-06T15:40:15;9.45;;;5.10;;
23222;SDS011;11780;13.904;100.620;2023-08-06T15:42:46;11.10;;;4.93;;
23222;SDS011;11780;13.904;100.620;2023-08-06T15:45:16;7.25;;;4.95;;
23222;SDS011;11780;13.904;100.620;2023-08-06T15:47:46;7.45;;;5.13;;
23222;SDS011;11780;13.904;100.620;2023-08-06T15:50:17;12.13;;;5.73;;
23222;SDS011;11780;13.904;100.620;2023-08-06T15:52:47;7.57;;;5.18;;
23222;SDS011;11780;13.904;100.620;2023-08-06T15:55:17;8.18;;;4.70;;
23222;SDS011;11780;13.904;100.620;2023-08-06T16:00:19;12.15;;;5.80;;
23222;SDS011;11780;13.904;100.620;2023-08-06T16:02:49;7.45;;;5.20;;
23222;SDS011;11780;13.904;100.620;2023-08-06T16:05:20;9.47;;;5.10;;
23222;SDS011;11780;13.904;100.620;2023-08-06T16:07:51;10.25;;;4.60;;
23222;SDS011;11780;13.904;100.620;2023-08-06T16:10:21;8.00;;;5.17;;
23222;SDS011;11780;13.904;100.620;2023-08-06T16:12:52;9.70;;;5.20;;
23222;SDS011;11780;13.904;100.620;2023-08-06T16:15:22;8.87;;;5.53;;
23222;SDS011;11780;13.904;100.620;2023-08-06T16:17:53;9.77;;;5.70;;
23222;SDS011;11780;13.904;100.620;2023-08-06T16:20:23;7.57;;;5.63;;
23222;SDS011;11780;13.904;100.620;2023-08-06T16:22:54;9.17;;;5.20;;
23222;SDS011;11780;13.904;100.620;2023-08-06T16:25:24;9.97;;;5.87;;
23222;SDS011;11780;13.904;100.620;2023-08-06T16:27:54;11.88;;;5.40;;
23222;SDS011;11780;13.904;100.620;2023-08-06T16:30:25;8.88;;;5.63;;
23222;SDS011;11780;13.904;100.620;2023-08-06T16:32:55;11.50;;;5.30;;
23222;SDS011;11780;13.904;100.620;2023-08-06T16:35:27;8.13;;;5.20;;
23222;SDS011;11780;13.904;100.620;2023-08-06T16:37:58;9.85;;;6.05;;
23222;SDS011;11780;13.904;100.620;2023-08-06T16:40:28;10.10;;;6.17;;
23222;SDS011;11780;13.904;100.620;2023-08-06T16:42:59;9.95;;;5.57;;
23222;SDS011;11780;13.904;100.620;2023-08-06T16:45:30;12.17;;;6.43;;
23222;SDS011;11780;13.904;100.620;2023-08-06T16:48:04;11.73;;;6.00;;
23222;SDS011;11780;13.904;100.620;2023-08-06T16:50:36;10.97;;;5.47;;
23222;SDS011;11780;13.904;100.620;2023-08-06T16:53:07;10.63;;;6.18;;
23222;SDS011;11780;13.904;100.620;2023-08-06T16:55:37;8.73;;;5.23;;
23222;SDS011;11780;13.904;100.620;2023-08-06T16:58:09;13.45;;;6.65;;
23222;SDS011;11780;13.904;100.620;2023-08-06T17:00:39;9.25;;;6.15;;
23222;SDS011;11780;13.904;100.620;2023-08-06T17:03:09;10.05;;;5.43;;
23222;SDS011;11780;13.904;100.620;2023-08-06T17:05:40;9.87;;;5.67;;
23222;SDS011;11780;13.904;100.620;2023-08-06T17:08:10;8.03;;;5.53;;
23222;SDS011;11780;13.904;100.620;2023-08-06T17:10:41;13.30;;;6.20;;
23222;SDS011;11780;13.904;100.620;2023-08-06T17:13:11;9.27;;;5.57;;
23222;SDS011;11780;13.904;100.620;2023-08-06T17:15:47;13.85;;;6.65;;
23222;SDS011;11780;13.904;100.620;2023-08-06T17:18:18;10.02;;;5.70;;
23222;SDS011;11780;13.904;100.620;2023-08-06T17:20:48;10.85;;;6.00;;
23222;SDS011;11780;13.904;100.620;2023-08-06T17:23:19;12.38;;;6.07;;
23222;SDS011;11780;13.904;100.620;2023-08-06T17:25:49;13.17;;;5.97;;
23222;SDS011;11780;13.904;100.620;2023-08-06T17:28:20;12.55;;;6.00;;
23222;SDS011;11780;13.904;100.620;2023-08-06T17:30:50;11.93;;;6.20;;
23222;SDS011;11780;13.904;100.620;2023-08-06T17:33:21;9.97;;;5.63;;
23222;SDS011;11780;13.904;100.620;2023-08-06T17:35:51;10.20;;;6.17;;
23222;SDS011;11780;13.904;100.620;2023-08-06T17:38:21;9.90;;;5.23;;
23222;SDS011;11780;13.904;100.620;2023-08-06T17:40:52;10.07;;;5.47;;
23222;SDS011;11780;13.904;100.620;2023-08-06T17:43:24;8.45;;;5.60;;
23222;SDS011;11780;13.904;100.620;2023-08-06T17:45:55;14.38;;;6.22;;
23222;SDS011;11780;13.904;100.620;2023-08-06T17:48:25;9.07;;;5.95;;
23222;SDS011;11780;13.904;100.620;2023-08-06T17:50:55;9.47;;;6.00;;
23222;SDS011;11780;13.904;100.620;2023-08-06T17:53:26;9.38;;;5.25;;
23222;SDS011;11780;13.904;100.620;2023-08-06T17:55:56;11.83;;;6.27;;
23222;SDS011;11780;13.904;100.620;2023-08-06T17:58:30;13.93;;;6.25;;
23222;SDS011;11780;13.904;100.620;2023-08-06T18:01:00;7.88;;;5.45;;
23222;SDS011;11780;13.904;100.620;2023-08-06T18:03:31;12.60;;;6.22;;
23222;SDS011;11780;13.904;100.620;2023-08-06T18:06:01;10.83;;;6.17;;
23222;SDS011;11780;13.904;100.620;2023-08-06T18:08:32;12.73;;;6.00;;
23222;SDS011;11780;13.904;100.620;2023-08-06T18:11:02;9.77;;;5.60;;
23222;SDS011;11780;13.904;100.620;2023-08-06T18:13:32;9.85;;;5.40;;
23222;SDS011;11780;13.904;100.620;2023-08-06T18:16:04;8.40;;;5.25;;
23222;SDS011;11780;13.904;100.620;2023-08-06T18:18:34;9.10;;;6.03;;
23222;SDS011;11780;13.904;100.620;2023-08-06T18:21:05;10.20;;;5.53;;
23222;SDS011;11780;13.904;100.620;2023-08-06T18:23:35;10.90;;;5.63;;
23222;SDS011;11780;13.904;100.620;2023-08-06T18:26:07;10.95;;;5.68;;
23222;SDS011;11780;13.904;100.620;2023-08-06T18:28:37;8.73;;;5.90;;
23222;SDS011;11780;13.904;100.620;2023-08-06T18:31:10;9.55;;;5.63;;
23222;SDS011;11780;13.904;100.620;2023-08-06T18:33:41;8.88;;;4.95;;
23222;SDS011;11780;13.904;100.620;2023-08-06T18:36:11;12.15;;;4.80;;
23222;SDS011;11780;13.904;100.620;2023-08-06T18:38:42;10.20;;;5.93;;
23222;SDS011;11780;13.904;100.620;2023-08-06T18:41:12;10.83;;;5.53;;
23222;SDS011;11780;13.904;100.620;2023-08-06T18:43:42;10.52;;;5.35;;
23222;SDS011;11780;13.904;100.620;2023-08-06T18:46:14;9.98;;;5.45;;
23222;SDS011;11780;13.904;100.620;2023-08-06T18:48:44;8.20;;;5.20;;
23222;SDS011;11780;13.904;100.620;2023-08-06T18:51:15;9.38;;;5.40;;
23222;SDS011;11780;13.904;100.620;2023-08-06T18:53:47;10.00;;;6.10;;
23222;SDS011;11780;13.904;100.620;2023-08-06T18:56:18;9.52;;;5.50;;
23222;SDS011;11780;13.904;100.620;2023-08-06T18:58:48;8.38;;;4.75;;
23222;SDS011;11780;13.904;100.620;2023-08-06T19:01:19;11.93;;;6.50;;
23222;SDS011;11780;13.904;100.620;2023-08-06T19:03:49;11.10;;;5.28;;
23222;SDS011;11780;13.904;100.620;2023-08-06T19:06:20;9.57;;;5.53;;
23222;SDS011;11780;13.904;100.620;2023-08-06T19:08:53;12.65;;;6.43;;
23222;SDS011;11780;13.904;100.620;2023-08-06T19:11:23;9.70;;;5.93;;
23222;SDS011;11780;13.904;100.620;2023-08-06T19:13:53;9.52;;;6.38;;
23222;SDS011;11780;13.904;100.620;2023-08-06T19:16:24;14.07;;;6.35;;
23222;SDS011;11780;13.904;100.620;2023-08-06T19:18:54;13.27;;;6.43;;
23222;SDS011;11780;13.904;100.620;2023-08-06T19:21:24;16.05;;;6.13;;
23222;SDS011;11780;13.904;100.620;2023-08-06T19:23:55;8.57;;;5.80;;
23222;SDS011;11780;13.904;100.620;2023-08-06T19:26:27;11.73;;;6.25;;
23222;SDS011;11780;13.904;100.620;2023-08-06T19:28:57;13.13;;;6.13;;
23222;SDS011;11780;13.904;100.620;2023-08-06T19:31:28;10.50;;;6.38;;
23222;SDS011;11780;13.904;100.620;2023-08-06T19:33:59;17.23;;;6.33;;
23222;SDS011;11780;13.904;100.620;2023-08-06T19:36:30;8.85;;;5.22;;
23222;SDS011;11780;13.904;100.620;2023-08-06T19:39:00;9.57;;;6.00;;
23222;SDS011;11780;13.904;100.620;2023-08-06T19:41:31;12.23;;;6.17;;
23222;SDS011;11780;13.904;100.620;2023-08-06T19:44:01;8.45;;;5.63;;
23222;SDS011;11780;13.904;100.620;2023-08-06T19:46:32;9.27;;;6.07;;
23222;SDS011;11780;13.904;100.620;2023-08-06T19:49:02;9.20;;;6.07;;
23222;SDS011;11780;13.904;100.620;2023-08-06T19:51:33;13.50;;;6.45;;
23222;SDS011;11780;13.904;100.620;2023-08-06T19:54:11;9.65;;;6.03;;
23222;SDS011;11780;13.904;100.620;2023-08-06T19:56:41;14.48;;;6.55;;
23222;SDS011;11780;13.904;100.620;2023-08-06T19:59:12;11.07;;;6.35;;
23222;SDS011;11780;13.904;100.620;2023-08-06T20:01:42;9.53;;;5.17;;
23222;SDS011;11780;13.904;100.620;2023-08-06T20:04:14;15.85;;;6.10;;
23222;SDS011;11780;13.904;100.620;2023-08-06T20:06:44;11.68;;;5.38;;
23222;SDS011;11780;13.904;100.620;2023-08-06T20:09:18;7.55;;;5.20;;
23222;SDS011;11780;13.904;100.620;2023-08-06T20:11:48;12.40;;;5.82;;
23222;SDS011;11780;13.904;100.620;2023-08-06T20:14:19;11.70;;;5.65;;
23222;SDS011;11780;13.904;100.620;2023-08-06T20:16:49;12.25;;;5.93;;
23222;SDS011;11780;13.904;100.620;2023-08-06T20:19:20;15.33;;;6.07;;
23222;SDS011;11780;13.904;100.620;2023-08-06T20:21:51;11.13;;;5.43;;
23222;SDS011;11780;13.904;100.620;2023-08-06T20:24:22;10.55;;;5.95;;
23222;SDS011;11780;13.904;100.620;2023-08-06T20:26:52;11.40;;;5.60;;
23222;SDS011;11780;13.904;100.620;2023-08-06T20:29:23;11.40;;;6.05;;
23222;SDS011;11780;13.904;100.620;2023-08-06T20:31:53;11.68;;;5.55;;
23222;SDS011;11780;13.904;100.620;2023-08-06T20:34:24;11.57;;;5.23;;
23222;SDS011;11780;13.904;100.620;2023-08-06T20:36:54;11.75;;;5.93;;
23222;SDS011;11780;13.904;100.620;2023-08-06T20:39:25;11.25;;;5.57;;
23222;SDS011;11780;13.904;100.620;2023-08-06T20:41:56;10.20;;;5.20;;
23222;SDS011;11780;13.904;100.620;2023-08-06T20:44:26;10.20;;;4.83;;
23222;SDS011;11780;13.904;100.620;2023-08-06T20:46:58;11.77;;;6.00;;
23222;SDS011;11780;13.904;100.620;2023-08-06T20:49:29;10.20;;;5.22;;
23222;SDS011;11780;13.904;100.620;2023-08-06T20:51:59;10.80;;;5.25;;
23222;SDS011;11780;13.904;100.620;2023-08-06T20:54:32;7.80;;;5.03;;
23222;SDS011;11780;13.904;100.620;2023-08-06T20:57:02;10.97;;;6.10;;
23222;SDS011;11780;13.904;100.620;2023-08-06T20:59:33;8.87;;;5.40;;
23222;SDS011;11780;13.904;100.620;2023-08-06T21:02:03;13.77;;;5.40;;
23222;SDS011;11780;13.904;100.620;2023-08-06T21:04:33;10.93;;;5.37;;
23222;SDS011;11780;13.904;100.620;2023-08-06T21:07:04;10.57;;;5.85;;
23222;SDS011;11780;13.904;100.620;2023-08-06T21:09:35;11.18;;;5.07;;
23222;SDS011;11780;13.904;100.620;2023-08-06T21:12:06;12.00;;;5.70;;
23222;SDS011;11780;13.904;100.620;2023-08-06T21:14:37;14.43;;;6.45;;
23222;SDS011;11780;13.904;100.620;2023-08-06T21:17:07;9.70;;;6.57;;
23222;SDS011;11780;13.904;100.620;2023-08-06T21:19:37;8.00;;;5.63;;
23222;SDS011;11780;13.904;100.620;2023-08-06T21:22:08;11.48;;;5.95;;
23222;SDS011;11780;13.904;100.620;2023-08-06T21:27:09;10.82;;;5.43;;
23222;SDS011;11780;13.904;100.620;2023-08-06T21:29:39;9.57;;;6.10;;
23222;SDS011;11780;13.904;100.620;2023-08-06T21:32:12;10.80;;;5.93;;
23222;SDS011;11780;13.904;100.620;2023-08-06T21:34:42;8.63;;;5.37;;
23222;SDS011;11780;13.904;100.620;2023-08-06T21:37:14;10.45;;;5.78;;
23222;SDS011;11780;13.904;100.620;2023-08-06T21:39:44;11.73;;;5.73;;
23222;SDS011;11780;13.904;100.620;2023-08-06T21:42:14;11.10;;;5.50;;
23222;SDS011;11780;13.904;100.620;2023-08-06T21:44:45;9.67;;;4.90;;
23222;SDS011;11780;13.904;100.620;2023-08-06T21:47:15;12.80;;;5.43;;
23222;SDS011;11780;13.904;100.620;2023-08-06T21:49:46;12.82;;;5.47;;
23222;SDS011;11780;13.904;100.620;2023-08-06T21:52:16;14.38;;;5.60;;
23222;SDS011;11780;13.904;100.620;2023-08-06T21:54:46;13.15;;;5.38;;
23222;SDS011;11780;13.904;100.620;2023-08-06T21:57:16;9.40;;;5.55;;
23222;SDS011;11780;13.904;100.620;2023-08-06T21:59:46;11.10;;;4.78;;
23222;SDS011;11780;13.904;100.620;2023-08-06T22:02:17;9.02;;;4.78;;
23222;SDS011;11780;13.904;100.620;2023-08-06T22:04:47;14.13;;;5.03;;
23222;SDS011;11780;13.904;100.620;2023-08-06T22:07:18;7.97;;;5.50;;
23222;SDS011;11780;13.904;100.620;2023-08-06T22:09:48;7.22;;;4.88;;
23222;SDS011;11780;13.904;100.620;2023-08-06T22:12:18;6.47;;;5.13;;
23222;SDS011;11780;13.904;100.620;2023-08-06T22:14:49;11.07;;;5.22;;
23222;SDS011;11780;13.904;100.620;2023-08-06T22:17:19;10.63;;;5.80;;
23222;SDS011;11780;13.904;100.620;2023-08-06T22:19:49;13.50;;;5.50;;
23222;SDS011;11780;13.904;100.620;2023-08-06T22:22:20;13.93;;;5.57;;
23222;SDS011;11780;13.904;100.620;2023-08-06T22:24:50;13.60;;;6.20;;
23222;SDS011;11780;13.904;100.620;2023-08-06T22:27:20;11.18;;;5.40;;
23222;SDS011;11780;13.904;100.620;2023-08-06T22:29:51;12.37;;;6.20;;
23222;SDS011;11780;13.904;100.620;2023-08-06T22:32:21;14.30;;;6.55;;
23222;SDS011;11780;13.904;100.620;2023-08-06T22:34:52;11.27;;;6.43;;
23222;SDS011;11780;13.904;100.620;2023-08-06T22:37:23;16.67;;;6.97;;
23222;SDS011;11780;13.904;100.620;2023-08-06T22:39:54;12.88;;;6.80;;
23222;SDS011;11780;13.904;100.620;2023-08-06T22:42:28;12.75;;;6.13;;
23222;SDS011;11780;13.904;100.620;2023-08-06T22:45:13;15.70;;;6.65;;
23222;SDS011;11780;13.904;100.620;2023-08-06T22:47:44;15.07;;;7.50;;
23222;SDS011;11780;13.904;100.620;2023-08-06T22:50:14;18.17;;;7.67;;
23222;SDS011;11780;13.904;100.620;2023-08-06T22:52:45;12.65;;;6.53;;
23222;SDS011;11780;13.904;100.620;2023-08-06T22:55:15;16.88;;;7.50;;
23222;SDS011;11780;13.904;100.620;2023-08-06T22:58:05;16.17;;;7.50;;
23222;SDS011;11780;13.904;100.620;2023-08-06T23:00:36;16.83;;;6.97;;
23222;SDS011;11780;13.904;100.620;2023-08-06T23:03:06;18.53;;;7.67;;
23222;SDS011;11780;13.904;100.620;2023-08-06T23:05:39;14.43;;;7.68;;
23222;SDS011;11780;13.904;100.620;2023-08-06T23:08:10;18.90;;;8.13;;
23222;SDS011;11780;13.904;100.620;2023-08-06T23:10:40;15.57;;;7.47;;
23222;SDS011;11780;13.904;100.620;2023-08-06T23:13:10;17.23;;;8.55;;
23222;SDS011;11780;13.904;100.620;2023-08-06T23:15:41;13.37;;;7.87;;
23222;SDS011;11780;13.904;100.620;2023-08-06T23:18:12;16.77;;;8.68;;
23222;SDS011;11780;13.904;100.620;2023-08-06T23:20:43;13.93;;;8.10;;
23222;SDS011;11780;13.904;100.620;2023-08-06T23:23:13;19.60;;;8.70;;
23222;SDS011;11780;13.904;100.620;2023-08-06T23:25:44;14.60;;;7.53;;
23222;SDS011;11780;13.904;100.620;2023-08-06T23:28:14;18.98;;;8.07;;
23222;SDS011;11780;13.904;100.620;2023-08-06T23:30:45;13.53;;;7.57;;
23222;SDS011;11780;13.904;100.620;2023-08-06T23:33:20;14.38;;;7.25;;
23222;SDS011;11780;13.904;100.620;2023-08-06T23:35:50;15.90;;;8.98;;
23222;SDS011;11780;13.904;100.620;2023-08-06T23:38:21;12.93;;;7.77;;
23222;SDS011;11780;13.904;100.620;2023-08-06T23:40:51;16.92;;;8.43;;
23222;SDS011;11780;13.904;100.620;2023-08-06T23:43:22;11.98;;;8.20;;
23222;SDS011;11780;13.904;100.620;2023-08-06T23:45:53;17.00;;;8.57;;
23222;SDS011;11780;13.904;100.620;2023-08-06T23:48:26;15.63;;;8.98;;
23222;SDS011;11780;13.904;100.620;2023-08-06T23:50:57;13.35;;;7.60;;
23222;SDS011;11780;13.904;100.620;2023-08-06T23:53:27;16.03;;;8.70;;
23222;SDS011;11780;13.904;100.620;2023-08-06T23:55:58;13.15;;;7.60;;
23222;SDS011;11780;13.904;100.620;2023-08-06T23:58:28;17.97;;;7.77;;
